createdAt,value
2022-11-05T00:00:57.179Z,2.78
2022-11-05T00:05:17.896Z,2.22
2022-11-05T00:09:46.168Z,2.60
2022-11-05T00:14:07.030Z,2.05
2022-11-05T00:18:09.058Z,1.90
2022-11-05T00:22:29.876Z,2.70
2022-11-05T00:26:31.974Z,2.50
2022-11-05T00:30:33.980Z,2.70
2022-11-05T00:34:35.989Z,3.40
2022-11-05T00:38:38.149Z,3.10
2022-11-05T00:43:02.551Z,3.38
2022-11-05T00:47:23.124Z,3.42
2022-11-05T00:51:25.101Z,4.05
2022-11-05T00:55:35.069Z,4.90
2022-11-05T00:59:37.060Z,5.97
2022-11-05T01:03:40.028Z,6.32
2022-11-05T01:07:42.123Z,6.53
2022-11-05T01:11:45.996Z,6.40
2022-11-05T01:15:48.458Z,7.18
2022-11-05T01:19:51.080Z,7.50
2022-11-05T01:23:53.691Z,7.40
2022-11-05T01:27:55.713Z,7.53
2022-11-05T01:31:57.772Z,7.80
2022-11-05T01:35:59.829Z,8.77
2022-11-05T01:40:02.526Z,7.85
2022-11-05T01:44:04.699Z,7.80
2022-11-05T01:48:15.246Z,8.13
2022-11-05T01:52:18.446Z,8.27
2022-11-05T01:56:26.809Z,8.63
2022-11-05T02:00:28.955Z,8.68
2022-11-05T02:04:35.579Z,8.93
2022-11-05T02:09:02.868Z,6.75
2022-11-05T02:13:04.888Z,9.00
2022-11-05T02:17:42.639Z,9.93
2022-11-05T02:22:02.786Z,9.45
2022-11-05T02:26:29.383Z,10.45
2022-11-05T02:30:37.484Z,9.98
2022-11-05T02:34:53.276Z,9.55
2022-11-05T02:39:20.346Z,10.88
2022-11-05T02:43:36.224Z,9.77
2022-11-05T02:47:45.446Z,10.30
2022-11-05T02:51:57.255Z,10.63
2022-11-05T02:56:04.128Z,11.10
2022-11-05T03:00:28.761Z,11.10
2022-11-05T03:04:32.130Z,11.45
2022-11-05T03:08:52.929Z,11.25
2022-11-05T03:13:04.071Z,12.75
2022-11-05T03:17:31.206Z,13.27
2022-11-05T03:21:53.111Z,14.57
2022-11-05T03:26:12.179Z,14.80
2022-11-05T03:30:18.437Z,14.80
2022-11-05T03:34:31.677Z,15.52
2022-11-05T03:38:38.321Z,16.33
2022-11-05T03:42:46.646Z,16.27
2022-11-05T03:46:49.787Z,15.45
2022-11-05T03:51:02.519Z,15.93
2022-11-05T03:55:05.903Z,16.67
2022-11-05T03:59:10.058Z,16.23
2022-11-05T04:03:12.437Z,16.38
2022-11-05T04:07:33.288Z,15.63
2022-11-05T04:11:54.510Z,16.52
2022-11-05T04:16:16.364Z,16.90
2022-11-05T04:20:37.062Z,16.75
2022-11-05T04:24:39.093Z,16.27
2022-11-05T04:29:02.531Z,15.05
2022-11-05T04:33:13.444Z,16.25
2022-11-05T04:37:15.882Z,15.68
2022-11-05T04:41:18.150Z,15.27
2022-11-05T04:45:20.203Z,15.55
2022-11-05T04:49:22.239Z,15.65
2022-11-05T04:53:24.249Z,15.55
2022-11-05T04:57:26.261Z,14.43
2022-11-05T05:01:28.359Z,14.75
2022-11-05T05:05:30.601Z,12.27
2022-11-05T05:09:32.600Z,12.05
2022-11-05T05:13:35.064Z,10.55
2022-11-05T05:17:37.104Z,9.02
2022-11-05T05:21:39.301Z,8.73
2022-11-05T05:25:41.380Z,7.93
2022-11-05T05:29:43.452Z,8.98
2022-11-05T05:33:45.448Z,7.57
2022-11-05T05:37:47.495Z,8.05
2022-11-05T05:41:49.581Z,7.53
2022-11-05T05:45:52.007Z,7.55
2022-11-05T05:49:54.013Z,8.18
2022-11-05T05:53:56.240Z,7.82
2022-11-05T05:57:58.241Z,8.05
2022-11-05T06:02:00.776Z,8.50
2022-11-05T06:06:08.285Z,8.20
2022-11-05T06:10:10.314Z,8.70
2022-11-05T06:14:13.145Z,8.60
2022-11-05T06:18:15.215Z,9.68
2022-11-05T06:22:17.233Z,9.65
2022-11-05T06:26:20.058Z,9.95
2022-11-05T06:30:23.514Z,10.10
2022-11-05T06:34:25.566Z,10.70
2022-11-05T06:38:29.195Z,11.07
2022-11-05T06:42:31.191Z,10.60
2022-11-05T06:46:33.200Z,10.68
2022-11-05T06:50:35.197Z,10.55
2022-11-05T06:54:37.181Z,10.75
2022-11-05T06:58:39.217Z,10.27
2022-11-05T07:02:41.199Z,10.52
2022-11-05T07:06:43.172Z,10.35
2022-11-05T07:10:45.153Z,18.17
2022-11-05T07:14:47.227Z,11.10
2022-11-05T07:18:49.262Z,11.23
2022-11-05T07:22:51.386Z,9.52
2022-11-05T07:26:53.380Z,10.35
2022-11-05T07:30:55.417Z,10.55
2022-11-05T07:34:57.459Z,10.70
2022-11-05T07:39:00.697Z,10.75
2022-11-05T07:43:02.951Z,10.38
2022-11-05T07:47:04.939Z,10.50
2022-11-05T07:51:06.939Z,11.00
2022-11-05T07:55:10.157Z,11.45
2022-11-05T07:59:12.191Z,10.85
2022-11-05T08:03:18.573Z,9.40
2022-11-05T08:07:21.083Z,9.77
2022-11-05T08:11:23.117Z,9.60
2022-11-05T08:15:25.532Z,10.80
2022-11-05T08:19:27.573Z,10.02
2022-11-05T08:23:30.999Z,9.82
2022-11-05T08:27:33.032Z,9.43
2022-11-05T08:31:37.023Z,9.00
2022-11-05T08:35:39.765Z,8.30
2022-11-05T08:39:41.782Z,10.20
2022-11-05T08:43:43.806Z,9.13
2022-11-05T08:47:46.244Z,8.95
2022-11-05T08:51:48.381Z,8.70
2022-11-05T08:55:51.472Z,8.82
2022-11-05T08:59:53.473Z,7.90
2022-11-05T09:03:55.515Z,8.00
2022-11-05T09:08:01.434Z,7.50
2022-11-05T09:12:12.259Z,7.13
2022-11-05T09:16:21.802Z,7.22
2022-11-05T09:20:23.968Z,8.55
2022-11-05T09:24:26.083Z,7.28
2022-11-05T09:28:28.350Z,7.82
2022-11-05T09:32:31.420Z,10.82
2022-11-05T09:36:33.411Z,8.35
2022-11-05T09:40:58.091Z,7.30
2022-11-05T09:45:08.902Z,8.02
2022-11-05T09:49:42.821Z,9.55
2022-11-05T09:53:46.092Z,6.68
2022-11-05T09:57:54.695Z,6.20
2022-11-05T10:02:09.642Z,5.72
2022-11-05T10:06:20.393Z,5.10
2022-11-05T10:10:40.506Z,5.47
2022-11-05T10:14:48.626Z,5.53
2022-11-05T10:19:13.638Z,5.47
2022-11-05T10:23:19.221Z,5.43
2022-11-05T10:27:35.358Z,6.35
2022-11-05T10:31:37.853Z,5.80
2022-11-05T10:36:06.175Z,5.50
2022-11-05T10:40:25.007Z,4.93
2022-11-05T10:44:35.754Z,4.07
2022-11-05T10:49:26.439Z,3.40
2022-11-05T10:53:34.757Z,3.90
2022-11-05T10:57:39.523Z,3.63
2022-11-05T11:01:41.949Z,3.50
2022-11-05T11:05:44.239Z,5.18
2022-11-05T11:09:49.537Z,3.25
2022-11-05T11:13:57.590Z,3.30
2022-11-05T11:18:23.948Z,4.10
2022-11-05T11:22:26.031Z,3.47
2022-11-05T11:26:42.105Z,3.15
2022-11-05T11:30:50.472Z,3.22
2022-11-05T11:34:54.227Z,2.65
2022-11-05T11:39:04.285Z,3.30
2022-11-05T11:43:28.099Z,3.05
2022-11-05T11:47:30.217Z,2.92
2022-11-05T11:51:40.305Z,3.10
2022-11-05T11:55:58.557Z,2.50
2022-11-05T12:00:09.515Z,2.80
2022-11-05T12:04:30.740Z,2.50
2022-11-05T12:08:45.565Z,1.80
2022-11-05T12:13:18.577Z,1.88
2022-11-05T12:17:23.507Z,2.40
2022-11-05T12:21:52.081Z,1.42
2022-11-05T12:26:13.353Z,1.02
2022-11-05T12:30:21.177Z,1.30
2022-11-05T12:34:54.107Z,1.40
2022-11-05T12:39:19.173Z,1.73
2022-11-05T12:43:40.886Z,1.73
2022-11-05T12:48:29.210Z,1.50
2022-11-05T12:53:02.245Z,2.25
2022-11-05T12:57:05.631Z,20.15
2022-11-05T13:01:21.975Z,2.40
2022-11-05T13:05:30.206Z,1.15
2022-11-05T13:09:55.699Z,1.50
2022-11-05T13:14:03.828Z,2.50
2022-11-05T13:18:13.389Z,1.70
2022-11-05T13:22:33.208Z,0.93
2022-11-05T13:26:52.771Z,1.30
2022-11-05T13:30:57.807Z,1.80
2022-11-05T13:35:02.753Z,3.30
2022-11-05T13:39:29.821Z,1.50
2022-11-05T13:44:02.936Z,1.03
2022-11-05T13:48:31.438Z,1.30
2022-11-05T13:52:46.127Z,1.80
2022-11-05T13:57:10.929Z,1.65
2022-11-05T14:01:29.699Z,1.30
2022-11-05T14:05:39.779Z,1.55
2022-11-05T14:09:43.490Z,1.42
2022-11-05T14:13:49.628Z,1.80
2022-11-05T14:18:02.035Z,1.88
2022-11-05T14:22:31.928Z,2.22
2022-11-05T14:26:34.024Z,1.98
2022-11-05T14:30:44.176Z,2.20
2022-11-05T14:34:48.294Z,2.10
2022-11-05T14:39:00.036Z,1.70
2022-11-05T14:43:14.341Z,2.25
2022-11-05T14:47:22.326Z,2.22
2022-11-05T14:51:39.948Z,1.52
2022-11-05T14:59:48.220Z,1.13
2022-11-05T15:04:25.023Z,1.17
2022-11-05T15:08:48.980Z,1.20
2022-11-05T15:12:56.422Z,1.27
2022-11-05T15:17:30.254Z,1.17
2022-11-05T15:21:35.550Z,1.75
2022-11-05T15:25:53.171Z,4.32
2022-11-05T15:29:55.755Z,4.90
2022-11-05T15:34:17.654Z,5.53
2022-11-05T15:38:28.129Z,3.55
2022-11-05T15:42:30.182Z,1.92
2022-11-05T15:46:32.168Z,2.10
2022-11-05T15:50:34.250Z,2.60
2022-11-05T15:54:36.535Z,3.47
2022-11-05T15:58:47.190Z,2.60
2022-11-05T16:02:59.024Z,2.13
2022-11-05T16:07:08.981Z,2.67
2022-11-05T16:11:21.251Z,3.35
2022-11-05T16:15:25.771Z,5.05
2022-11-05T16:19:41.113Z,6.35
2022-11-05T16:23:44.476Z,7.05
2022-11-05T16:27:46.500Z,3.80
2022-11-05T16:31:50.712Z,2.78
2022-11-05T16:35:53.136Z,2.95
2022-11-05T16:39:55.526Z,4.90
2022-11-05T16:43:59.988Z,5.95
2022-11-05T16:48:01.979Z,6.78
2022-11-05T16:52:08.627Z,9.93
2022-11-05T16:56:15.643Z,12.02
2022-11-05T17:00:20.255Z,11.68
2022-11-05T17:04:22.247Z,10.40
2022-11-05T17:08:24.396Z,8.93
2022-11-05T17:12:26.399Z,9.60
2022-11-05T17:16:29.287Z,8.93
2022-11-05T17:20:59.744Z,8.20
2022-11-05T17:25:01.726Z,8.80
2022-11-05T17:29:03.763Z,7.90
2022-11-05T17:33:05.812Z,6.55
2022-11-05T17:37:07.825Z,11.40
2022-11-05T17:41:21.912Z,9.98
2022-11-05T17:45:23.906Z,7.95
2022-11-05T17:49:25.936Z,6.13
2022-11-05T17:53:27.944Z,5.10
2022-11-05T17:57:29.910Z,4.53
2022-11-05T18:01:34.631Z,9.10
2022-11-05T18:05:37.870Z,10.52
2022-11-05T18:09:40.286Z,8.57
2022-11-05T18:13:42.352Z,7.22
2022-11-05T18:17:46.148Z,7.22
2022-11-05T18:21:48.143Z,7.20
2022-11-05T18:25:50.158Z,4.30
2022-11-05T18:29:52.236Z,6.65
2022-11-05T18:33:56.732Z,6.15
2022-11-05T18:37:59.066Z,5.72
2022-11-05T18:42:01.102Z,4.88
2022-11-05T18:46:03.219Z,4.28
2022-11-05T18:50:06.589Z,5.82
2022-11-05T18:54:08.865Z,3.60
2022-11-05T18:58:11.076Z,5.47
2022-11-05T19:02:14.523Z,4.75
2022-11-05T19:06:25.985Z,4.68
2022-11-05T19:10:28.318Z,4.85
2022-11-05T19:14:30.444Z,3.50
2022-11-05T19:18:32.439Z,3.50
2022-11-05T19:22:34.473Z,2.70
2022-11-05T19:26:36.482Z,3.22
2022-11-05T19:30:38.798Z,3.95
2022-11-05T19:34:40.795Z,4.10
2022-11-05T19:38:43.314Z,3.67
2022-11-05T19:42:45.786Z,4.07
2022-11-05T19:46:47.789Z,4.20
2022-11-05T19:50:49.911Z,4.00
2022-11-05T19:54:51.886Z,4.10
2022-11-05T19:58:54.370Z,3.53
2022-11-05T20:02:56.546Z,3.88
2022-11-05T20:06:58.710Z,4.40
2022-11-05T20:11:00.939Z,5.55
2022-11-05T20:15:03.931Z,4.13
2022-11-05T20:19:08.776Z,3.30
2022-11-05T20:23:11.230Z,3.33
2022-11-05T20:27:13.237Z,3.67
2022-11-05T20:31:17.892Z,3.05
2022-11-05T20:35:19.892Z,3.90
2022-11-05T20:39:21.959Z,4.40
2022-11-05T20:43:30.038Z,4.15
2022-11-05T20:47:33.652Z,3.88
2022-11-05T20:51:35.812Z,3.90
2022-11-05T20:55:42.640Z,4.13
2022-11-05T20:59:44.734Z,4.82
2022-11-05T21:03:47.762Z,4.60
2022-11-05T21:07:49.814Z,5.80
2022-11-05T21:12:10.123Z,11.32
2022-11-05T21:16:17.872Z,9.15
2022-11-05T21:20:21.342Z,7.97
2022-11-05T21:24:23.595Z,6.95
2022-11-05T21:28:25.601Z,5.90
2022-11-05T21:32:27.627Z,6.57
2022-11-05T21:36:29.784Z,6.50
2022-11-05T21:40:32.661Z,7.25
2022-11-05T21:44:34.644Z,7.85
2022-11-05T21:48:36.670Z,8.25
2022-11-05T21:52:57.265Z,7.85
2022-11-05T21:57:17.852Z,8.40
2022-11-05T22:01:19.979Z,8.95
2022-11-05T22:05:22.126Z,9.35
2022-11-05T22:09:24.793Z,10.15
2022-11-05T22:13:26.828Z,11.88
2022-11-05T22:17:29.032Z,16.63
2022-11-05T22:21:31.139Z,13.18
2022-11-05T22:25:33.172Z,9.75
2022-11-05T22:29:36.184Z,9.00
2022-11-05T22:33:38.196Z,8.60
2022-11-05T22:37:40.231Z,8.50
2022-11-05T22:41:42.912Z,8.27
2022-11-05T22:45:45.491Z,10.23
2022-11-05T22:49:49.246Z,11.02
2022-11-05T22:53:51.261Z,10.43
2022-11-05T22:57:53.238Z,7.85
2022-11-05T23:01:55.437Z,8.50
2022-11-05T23:05:59.309Z,8.00
2022-11-05T23:10:20.070Z,8.18
2022-11-05T23:14:22.087Z,8.48
2022-11-05T23:18:42.933Z,7.30
2022-11-05T23:23:03.460Z,6.30
2022-11-05T23:27:05.433Z,6.18
2022-11-05T23:31:27.325Z,6.07
2022-11-05T23:36:01.800Z,6.35
2022-11-05T23:40:07.036Z,6.75
2022-11-05T23:44:27.782Z,5.93
2022-11-05T23:48:35.794Z,6.18
2022-11-05T23:52:37.851Z,6.90
2022-11-05T23:56:39.930Z,7.00
